Time;durP1;ratioP1;P1;durP2;ratioP2;P2;SDS_P1;SDS_P2;PMS_P1;PMS_P2;Temp;Humidity;BMP_temperature;BMP_pressure;BME280_temperature;BME280_humidity;BME280_pressure;Samples;Min_cycle;Max_cycle;Signal;HPM_P1;HPM_P2
2022/01/28 00:04:47;;;;;;;;;;;;;;;-13.98;64.18;100042.00;4997836;28;20038;-88
2022/01/28 00:07:13;;;;;;;89.22;21.10;;;;;;;-14.04;64.44;100030.66;4966708;28;19926;-88
2022/01/28 00:09:39;;;;;;;112.88;24.30;;;;;;;-14.01;65.08;100039.34;4957245;28;20043;-88
2022/01/28 00:12:08;;;;;;;107.70;24.55;;;;;;;-13.96;64.96;100053.16;4960490;28;20058;-81
2022/01/28 00:36:42;;;;;;;261.23;36.10;;;;;;;-14.36;67.00;100045.13;4959900;28;20061;-86
2022/01/28 00:39:09;;;;;;;270.20;35.53;;;;;;;-14.41;66.98;100029.56;4961583;28;20557;-85
2022/01/28 00:41:35;;;;;;;203.52;33.63;;;;;;;-14.47;67.02;100030.25;4977548;28;20488;-85
2022/01/28 00:44:01;;;;;;;320.67;38.20;;;;;;;-14.52;67.25;100033.53;4985515;28;20054;-85
2022/01/28 00:46:26;;;;;;;396.63;41.67;;;;;;;-14.73;67.42;100029.47;4994969;28;20050;-86
2022/01/28 00:48:52;;;;;;;420.30;39.58;;;;;;;-15.04;68.10;100017.34;4991094;28;20058;-81
2022/01/28 00:51:18;;;;;;;549.55;47.67;;;;;;;-15.28;68.49;100013.97;4976836;28;20557;-79
2022/01/28 00:53:44;;;;;;;366.52;39.78;;;;;;;-15.12;68.26;100030.72;4982950;28;20082;-78
2022/01/28 00:56:10;;;;;;;543.13;46.60;;;;;;;-15.04;68.62;100026.72;4984503;28;20465;-78
2022/01/28 00:58:36;;;;;;;416.90;41.70;;;;;;;-15.17;68.63;100030.56;4953279;28;20457;-77
2022/01/28 01:01:02;;;;;;;477.85;41.10;;;;;;;-15.29;69.01;100036.16;4969218;28;20070;-78
2022/01/28 01:03:29;;;;;;;322.83;37.55;;;;;;;-15.18;69.41;100028.84;4994486;28;20128;-81
2022/01/28 01:05:55;;;;;;;424.27;39.30;;;;;;;-15.04;69.02;100029.28;4960717;28;20042;-82
2022/01/28 01:08:21;;;;;;;311.63;36.13;;;;;;;-14.95;69.14;100033.03;4976340;28;20042;-80
2022/01/28 01:10:47;;;;;;;328.60;36.22;;;;;;;-14.92;69.13;100010.88;4979644;28;20077;-82
2022/01/28 01:13:13;;;;;;;568.88;46.13;;;;;;;-14.96;68.85;100015.91;4959514;28;20051;-83
2022/01/28 01:15:43;;;;;;;473.42;41.40;;;;;;;-15.27;68.73;100010.56;4959563;28;20057;-83
2022/01/28 01:23:22;;;;;;;280.55;38.00;;;;;;;-15.37;69.35;100005.97;4964491;28;20055;-85
2022/01/28 01:25:55;;;;;;;356.52;37.30;;;;;;;-15.43;69.34;100004.06;4967123;28;20502;-85
2022/01/28 01:28:26;;;;;;;466.73;41.13;;;;;;;-15.56;69.40;99995.09;4968612;28;20085;-84
2022/01/28 01:30:53;;;;;;;389.63;40.08;;;;;;;-15.58;69.23;100017.22;4951071;28;20039;-86
2022/01/28 01:33:20;;;;;;;305.58;39.92;;;;;;;-15.56;69.67;100005.34;4944435;28;20463;-89
2022/01/28 01:35:46;;;;;;;175.38;33.13;;;;;;;-15.45;69.47;100011.72;4961824;28;20047;-86
2022/01/28 01:38:12;;;;;;;182.25;36.35;;;;;;;-15.40;68.94;100016.97;4975110;28;20055;-86
2022/01/28 01:40:51;;;;;;;182.93;28.73;;;;;;;-15.65;69.46;100015.28;4966176;28;20046;-88
2022/01/28 01:43:30;;;;;;;191.40;33.70;;;;;;;-15.83;69.50;100024.88;4961942;28;20042;-88
2022/01/28 01:52:08;;;;;;;163.85;29.98;;;;;;;-15.54;69.74;99996.00;4975517;28;20049;-89
2022/01/28 01:54:03;;;;;;;161.50;34.83;;;;;;;-15.59;69.16;100004.38;4962873;28;20086;-87
2022/01/28 01:56:29;;;;;;;113.10;31.80;;;;;;;-15.67;68.99;99996.44;4958931;28;20090;-79
2022/01/28 01:58:58;;;;;;;158.15;30.33;;;;;;;-15.75;69.07;99995.31;4958398;28;20047;-79
2022/01/28 02:01:25;;;;;;;85.82;30.42;;;;;;;-15.86;69.28;99994.94;4958243;28;20045;-80
2022/01/28 02:03:51;;;;;;;121.65;37.20;;;;;;;-15.84;68.78;99997.53;4958430;28;20427;-80
2022/01/28 02:06:21;;;;;;;123.25;33.33;;;;;;;-15.86;69.15;99994.06;4974138;28;20053;-80
2022/01/28 02:08:47;;;;;;;124.47;34.90;;;;;;;-15.84;69.06;100000.09;4942411;28;20387;-81
2022/01/28 02:11:13;;;;;;;90.85;22.52;;;;;;;-16.08;68.93;100000.97;4958671;28;20517;-80
2022/01/28 02:13:40;;;;;;;48.60;18.13;;;;;;;-16.47;69.03;99995.22;4975013;28;20046;-82
2022/01/28 02:16:06;;;;;;;90.90;22.55;;;;;;;-16.79;69.58;99983.78;4974815;28;20375;-79
2022/01/28 02:18:32;;;;;;;145.40;28.08;;;;;;;-16.89;69.88;99991.91;4958451;28;20105;-80
2022/01/28 02:21:05;;;;;;;106.88;24.45;;;;;;;-16.96;69.71;99989.13;4958342;28;20090;-81
2022/01/28 02:23:32;;;;;;;91.63;17.58;;;;;;;-16.98;69.84;99993.28;4943147;28;20054;-81
2022/01/28 02:25:59;;;;;;;119.40;23.35;;;;;;;-17.04;70.22;100003.25;4942433;28;20125;-80
2022/01/28 02:28:27;;;;;;;40.40;13.35;;;;;;;-17.13;70.15;99999.47;4958409;28;20047;-80
2022/01/28 02:30:53;;;;;;;90.22;21.00;;;;;;;-17.15;69.70;99999.41;4974039;28;20105;-79
2022/01/28 02:33:22;;;;;;;87.55;22.45;;;;;;;-16.94;69.69;99992.59;4958028;28;20046;-81
2022/01/28 02:35:50;;;;;;;87.57;23.10;;;;;;;-16.88;68.98;99994.53;4926512;28;20486;-80
2022/01/28 02:38:17;;;;;;;75.30;22.15;;;;;;;-16.81;68.42;100000.75;4941948;28;20106;-80
2022/01/28 02:40:49;;;;;;;65.05;18.35;;;;;;;-16.95;68.27;99988.31;4958446;28;20073;-79
2022/01/28 02:43:30;;;;;;;77.50;20.27;;;;;;;-17.04;68.06;99992.16;4958805;28;20109;-79
2022/01/28 02:46:03;;;;;;;82.43;22.25;;;;;;;-17.08;68.40;99996.28;4959783;28;20135;-81
2022/01/28 02:48:34;;;;;;;86.05;25.70;;;;;;;-16.99;68.51;99996.66;4974759;28;20110;-81
2022/01/28 02:51:16;;;;;;;87.63;23.05;;;;;;;-17.10;68.92;99981.72;4958248;28;20039;-79
2022/01/28 02:53:47;;;;;;;73.57;20.00;;;;;;;-17.20;69.49;99986.44;4974068;28;20065;-80
2022/01/28 02:56:17;;;;;;;63.75;19.75;;;;;;;-17.11;69.34;99998.72;4957672;28;20062;-80
2022/01/28 02:58:43;;;;;;;92.35;23.98;;;;;;;-16.91;69.35;99995.28;4957451;28;20520;-79
2022/01/28 03:01:13;;;;;;;101.78;25.38;;;;;;;-16.79;69.12;99983.78;4972925;28;20038;-79
2022/01/28 03:03:40;;;;;;;93.93;22.05;;;;;;;-16.69;68.75;99986.75;4973701;28;20045;-81
2022/01/28 03:06:06;;;;;;;72.70;21.38;;;;;;;-16.73;69.22;99986.59;4973723;28;20055;-80
2022/01/28 03:08:33;;;;;;;56.65;17.67;;;;;;;-16.88;69.09;99980.84;4958362;28;20541;-80
2022/01/28 03:13:45;;;;;;;78.97;20.55;;;;;;;-16.88;69.62;99978.31;4993783;28;20043;-81
2022/01/28 03:16:14;;;;;;;76.18;23.63;;;;;;;-16.70;69.64;99973.88;4960173;28;20101;-81
2022/01/28 03:18:49;;;;;;;71.63;20.23;;;;;;;-16.50;69.41;99980.63;4973255;28;20129;-82
2022/01/28 03:21:54;;;;;;;116.57;25.73;;;;;;;-16.49;69.35;99967.03;4943889;28;20096;-81
2022/01/28 03:24:09;;;;;;;147.98;21.80;;;;;;;-16.31;69.53;99978.78;4970386;28;20051;-82
2022/01/28 03:26:36;;;;;;;190.13;28.13;;;;;;;-16.21;69.65;99975.72;4926188;28;20046;-79
2022/01/28 03:29:02;;;;;;;467.25;34.22;;;;;;;-16.12;70.02;99981.19;4974593;28;20633;-78
2022/01/28 03:31:28;;;;;;;203.48;31.25;;;;;;;-15.98;70.35;99985.13;4972996;28;20133;-80
2022/01/28 03:33:54;;;;;;;370.23;32.28;;;;;;;-16.02;70.89;99977.25;4941177;28;20089;-80
2022/01/28 03:36:23;;;;;;;287.38;38.97;;;;;;;-15.99;71.35;99973.09;4924915;28;20070;-78
2022/01/28 03:38:49;;;;;;;206.80;32.83;;;;;;;-15.85;71.69;99980.44;4941410;28;20578;-82
2022/01/28 03:41:18;;;;;;;449.55;37.58;;;;;;;-15.67;71.59;99981.06;4973520;28;20054;-82
2022/01/28 03:43:45;;;;;;;320.88;36.35;;;;;;;-15.74;71.88;99979.97;4964167;28;20082;-80
2022/01/28 03:46:11;;;;;;;299.98;34.67;;;;;;;-15.69;71.85;99987.81;4968536;28;20046;-79
2022/01/28 03:48:37;;;;;;;279.02;36.53;;;;;;;-15.68;71.82;99966.53;4946049;28;20577;-81
2022/01/28 03:51:03;;;;;;;285.48;38.55;;;;;;;-15.54;71.64;99955.00;4956553;28;20090;-80
2022/01/28 03:53:29;;;;;;;318.63;38.33;;;;;;;-15.30;71.60;99972.91;4972759;28;20038;-82
2022/01/28 03:55:57;;;;;;;258.17;56.95;;;;;;;-15.20;71.54;99954.41;4956618;28;20390;-82
2022/01/28 03:58:26;;;;;;;192.60;35.22;;;;;;;-15.11;71.18;99958.13;4973074;28;20046;-79
2022/01/28 04:00:53;;;;;;;202.32;35.65;;;;;;;-15.25;71.17;99965.34;4940780;28;20450;-81
2022/01/28 04:13:49;;;;;;;116.95;27.30;;;;;;;-14.90;72.19;99952.78;4974087;28;20074;-80
2022/01/28 04:18:41;;;;;;;423.40;44.40;;;;;;;-14.89;71.39;99951.97;4977019;28;20066;-81
2022/01/28 04:21:07;;;;;;;371.35;38.67;;;;;;;-15.06;71.26;99944.63;4908837;29;20043;-80
2022/01/28 04:23:33;;;;;;;234.75;31.85;;;;;;;-14.98;71.55;99953.41;4956622;29;20051;-81
2022/01/28 04:25:59;;;;;;;211.90;34.63;;;;;;;-14.85;71.59;99951.22;4956928;29;20043;-80
2022/01/28 04:28:26;;;;;;;191.40;31.58;;;;;;;-14.75;71.12;99960.94;4925083;29;20414;-82
2022/01/28 04:30:53;;;;;;;210.45;34.80;;;;;;;-15.11;70.94;99953.88;4956778;28;20059;-78
2022/01/28 04:33:19;;;;;;;250.65;33.75;;;;;;;-15.02;70.91;99956.72;4925602;29;20137;-83
2022/01/28 04:35:48;;;;;;;249.75;32.60;;;;;;;-15.20;70.40;99956.13;4911893;29;20078;-79
2022/01/28 04:41:28;;;;;;;136.10;29.30;;;;;;;-14.94;70.02;99957.81;4907239;29;20048;-82
2022/01/28 04:44:05;;;;;;;125.78;32.28;;;;;;;-14.94;69.47;99947.56;4903497;29;20043;-84
2022/01/28 04:46:48;;;;;;;128.05;30.67;;;;;;;-14.98;69.01;99943.16;4937929;29;20180;-80
2022/01/28 04:49:25;;;;;;;85.15;25.50;;;;;;;-15.20;68.88;99954.41;4957726;29;20498;-81
2022/01/28 04:57:20;;;;;;;124.63;27.48;;;;;;;-15.18;69.05;99946.78;4943278;29;20055;-80
2022/01/28 05:24:04;;;;;;;91.90;28.48;;;;;;;-14.51;65.82;99918.06;4974716;28;20051;-80
2022/01/28 05:28:40;;;;;;;135.93;35.80;;;;;;;-14.34;65.36;99909.94;4974599;28;20439;-79
2022/01/28 05:31:06;;;;;;;117.88;35.58;;;;;;;-14.15;65.24;99912.19;4958463;28;20502;-79
2022/01/28 05:33:32;;;;;;;143.57;40.03;;;;;;;-14.04;64.62;99918.50;4975616;28;20051;-80
2022/01/28 05:35:57;;;;;;;148.43;41.60;;;;;;;-13.73;65.10;99921.88;4959234;28;20081;-80
2022/01/28 05:38:24;;;;;;;147.43;42.88;;;;;;;-13.62;63.97;99920.47;4974562;28;20043;-79
2022/01/28 05:40:50;;;;;;;130.85;42.00;;;;;;;-13.64;62.93;99909.28;4958407;28;20038;-79
2022/01/28 05:43:16;;;;;;;159.43;48.05;;;;;;;-13.50;63.11;99913.09;4959010;28;20050;-80
2022/01/28 05:45:42;;;;;;;149.13;46.92;;;;;;;-13.37;62.58;99900.53;4942306;28;20046;-80
2022/01/28 05:48:08;;;;;;;154.70;50.20;;;;;;;-13.27;61.91;99907.66;4974490;28;20478;-80
2022/01/28 05:50:34;;;;;;;127.85;44.03;;;;;;;-13.26;61.48;99904.22;4975769;28;20043;-79
2022/01/28 05:53:01;;;;;;;146.50;50.33;;;;;;;-13.29;61.90;99905.00;4942640;28;20050;-78
2022/01/28 05:55:27;;;;;;;180.77;55.60;;;;;;;-13.01;61.88;99905.63;4958516;28;20065;-79
2022/01/28 05:57:53;;;;;;;180.20;54.03;;;;;;;-12.85;61.81;99897.44;4942313;28;20047;-78
2022/01/28 06:00:19;;;;;;;130.00;39.38;;;;;;;-13.00;60.83;99891.94;4975430;28;20068;-82
2022/01/28 06:02:46;;;;;;;184.48;56.50;;;;;;;-13.00;60.89;99897.97;4958268;28;20043;-81
2022/01/28 06:05:12;;;;;;;203.48;58.20;;;;;;;-13.03;61.31;99903.03;4958128;28;20095;-80
2022/01/28 06:07:41;;;;;;;161.93;45.95;;;;;;;-13.24;61.08;99897.41;4957928;28;20039;-79
2022/01/28 06:10:11;;;;;;;;;;;;;;;-13.48;60.75;99883.13;4959144;28;20109;-78
2022/01/28 06:12:41;;;;;;;130.43;40.95;;;;;;;-13.54;61.15;99883.00;4958083;28;20008;-79
2022/01/28 06:15:09;;;;;;;96.60;30.00;;;;;;;-13.73;61.28;99886.78;4958415;28;20101;-80
2022/01/28 06:17:35;;;;;;;116.18;38.40;;;;;;;-13.80;61.47;99878.88;4958411;28;20043;-81
2022/01/28 06:20:02;;;;;;;119.07;38.40;;;;;;;-13.98;61.66;99880.13;4942086;28;20043;-80
2022/01/28 06:22:29;;;;;;;151.48;45.05;;;;;;;-13.97;62.48;99870.72;4958068;28;20067;-81
2022/01/28 06:24:55;;;;;;;111.57;39.97;;;;;;;-13.65;62.46;99884.44;4958144;28;20042;-79
2022/01/28 06:27:22;;;;;;;140.00;40.60;;;;;;;-13.41;62.63;99884.16;4942003;28;20227;-80
2022/01/28 06:29:49;;;;;;;99.03;29.15;;;;;;;-13.54;61.77;99883.00;4973916;28;20043;-79
2022/01/28 06:32:16;;;;;;;100.47;34.25;;;;;;;-13.40;62.04;99880.75;4973972;28;20034;-83
2022/01/28 06:34:43;;;;;;;98.22;30.90;;;;;;;-13.16;61.88;99885.59;4942294;28;20109;-79
2022/01/28 06:37:09;;;;;;;109.32;33.33;;;;;;;-12.98;61.18;99890.25;4941407;28;20058;-82
2022/01/28 06:39:35;;;;;;;111.22;35.92;;;;;;;-12.89;60.57;99894.78;4925874;28;20093;-81
2022/01/28 06:42:01;;;;;;;84.03;27.23;;;;;;;-13.05;61.00;99899.56;4973529;28;20034;-78
2022/01/28 06:44:27;;;;;;;96.57;27.02;;;;;;;-13.39;60.86;99895.31;4957978;28;20050;-78
2022/01/28 06:46:53;;;;;;;113.97;32.35;;;;;;;-13.39;61.48;99895.31;4957555;28;20082;-80
2022/01/28 06:49:19;;;;;;;120.43;34.05;;;;;;;-13.20;61.21;99886.31;4957320;28;20042;-79
2022/01/28 06:51:45;;;;;;;118.07;36.63;;;;;;;-13.01;61.03;99885.03;4957595;28;20093;-80
2022/01/28 06:54:12;;;;;;;123.93;36.35;;;;;;;-12.86;61.04;99899.97;4932088;28;20045;-79
2022/01/28 06:56:38;;;;;;;123.28;31.80;;;;;;;-12.71;60.68;99890.03;4952409;28;20046;-82
2022/01/28 06:59:04;;;;;;;104.40;35.03;;;;;;;-12.65;60.36;99890.16;4958955;28;20047;-79
2022/01/28 07:01:30;;;;;;;119.10;32.95;;;;;;;-12.40;60.30;99876.09;4973203;28;20081;-80
2022/01/28 07:03:56;;;;;;;125.57;38.30;;;;;;;-12.61;59.72;99861.06;4941657;28;20042;-81
2022/01/28 07:06:23;;;;;;;160.30;45.33;;;;;;;-12.53;59.72;99874.94;4957384;28;20171;-79
2022/01/28 07:08:50;;;;;;;161.05;43.08;;;;;;;-12.48;59.68;99868.22;4941398;28;20130;-78
2022/01/28 07:11:17;;;;;;;153.80;45.28;;;;;;;-12.40;59.68;99880.38;4974166;28;20047;-80
2022/01/28 07:13:46;;;;;;;176.15;48.60;;;;;;;-12.43;59.87;99880.31;4973230;28;20387;-82
2022/01/28 07:16:13;;;;;;;198.30;54.20;;;;;;;-12.33;59.43;99883.09;4925573;28;20053;-81
2022/01/28 07:18:38;;;;;;;162.48;49.58;;;;;;;-11.90;60.14;99891.66;4940922;28;20042;-80
2022/01/28 07:21:04;;;;;;;196.95;55.92;;;;;;;-11.65;59.39;99879.19;4940972;28;20378;-79
2022/01/28 07:23:30;;;;;;;176.02;54.90;;;;;;;-11.55;59.14;99876.78;4925341;28;20157;-80
2022/01/28 07:25:56;;;;;;;213.57;57.38;;;;;;;-11.42;58.43;99877.00;4950561;28;20069;-81
2022/01/28 07:28:25;;;;;;;198.48;55.75;;;;;;;-11.14;58.17;99874.00;4982758;28;20050;-81
2022/01/28 07:30:51;;;;;;;203.68;66.05;;;;;;;-11.01;58.29;99885.41;4959749;28;20494;-83
2022/01/28 07:33:17;;;;;;;206.73;66.82;;;;;;;-11.04;58.25;99869.84;4941280;28;20074;-80
2022/01/28 07:35:43;;;;;;;214.30;69.07;;;;;;;-11.05;58.17;99862.97;4973006;28;20458;-81
2022/01/28 07:38:10;;;;;;;187.10;62.90;;;;;;;-10.79;58.53;99871.97;4925516;28;20042;-81
2022/01/28 07:40:36;;;;;;;201.30;67.57;;;;;;;-10.50;58.41;99871.47;4973018;28;20043;-83
2022/01/28 07:43:02;;;;;;;195.95;68.45;;;;;;;-10.31;57.96;99875.16;4940550;28;20145;-82
2022/01/28 07:45:28;;;;;;;205.25;73.88;;;;;;;-10.09;57.72;99859.00;4972750;28;20046;-78
2022/01/28 07:47:54;;;;;;;188.23;62.78;;;;;;;-9.85;57.32;99857.56;4958208;28;20042;-81
2022/01/28 07:50:20;;;;;;;211.32;72.35;;;;;;;-9.75;57.18;99850.75;4930565;28;20038;-82
2022/01/28 07:52:47;;;;;;;201.13;71.18;;;;;;;-9.86;56.65;99842.88;4930820;28;20054;-82
2022/01/28 07:55:14;;;;;;;191.45;67.70;;;;;;;-9.74;56.77;99832.66;4929684;28;20047;-80
2022/01/28 07:57:41;;;;;;;189.98;62.20;;;;;;;-9.92;56.74;99823.00;4961783;28;20046;-79
2022/01/28 08:00:08;;;;;;;173.73;61.60;;;;;;;-9.83;56.92;99836.00;4976427;28;20042;-82
2022/01/28 08:02:38;;;;;;;196.68;67.65;;;;;;;-9.56;57.30;99827.63;4961323;28;20522;-82
2022/01/28 08:05:05;;;;;;;146.65;53.63;;;;;;;-9.57;56.55;99823.31;4976466;28;20588;-81
2022/01/28 08:07:31;;;;;;;129.82;49.40;;;;;;;-9.90;56.96;99825.59;4928559;28;20058;-82
2022/01/28 08:09:57;;;;;;;140.30;47.55;;;;;;;-10.01;57.96;99825.47;4960806;28;20062;-82
2022/01/28 08:12:23;;;;;;;202.95;61.60;;;;;;;-9.83;57.90;99814.47;4928708;28;20046;-82
2022/01/28 08:14:49;;;;;;;140.10;51.35;;;;;;;-9.66;57.84;99831.00;4929003;28;20439;-83
2022/01/28 08:17:15;;;;;;;135.15;53.30;;;;;;;-9.68;58.61;99826.66;4946930;28;20363;-81
2022/01/28 08:19:41;;;;;;;160.25;58.78;;;;;;;-9.55;59.13;99838.88;4964405;28;20129;-80
2022/01/28 08:22:08;;;;;;;178.77;59.15;;;;;;;-9.17;58.75;99825.38;4966599;28;20105;-80
2022/01/28 08:24:33;;;;;;;168.50;58.65;;;;;;;-8.98;58.48;99821.16;4964023;28;20042;-80
2022/01/28 08:26:59;;;;;;;163.98;55.60;;;;;;;-8.68;58.17;99816.16;4960523;28;20082;-81
2022/01/28 08:29:26;;;;;;;138.63;49.33;;;;;;;-8.96;58.19;99815.13;4976000;28;20047;-81
2022/01/28 08:31:51;;;;;;;120.57;46.83;;;;;;;-8.97;58.46;99802.19;4975962;28;20042;-81
2022/01/28 08:34:17;;;;;;;101.43;38.75;;;;;;;-8.89;58.67;99810.84;4959748;28;20079;-80
2022/01/28 08:36:44;;;;;;;134.13;44.25;;;;;;;-8.95;58.40;99813.41;4911864;28;20042;-83
2022/01/28 08:39:11;;;;;;;135.75;45.92;;;;;;;-8.99;58.71;99798.69;4927926;28;20038;-82
2022/01/28 08:41:39;;;;;;;113.68;37.28;;;;;;;-9.48;59.61;99798.34;4943856;28;20043;-80
2022/01/28 08:44:05;;;;;;;126.88;42.50;;;;;;;-9.73;60.78;99812.84;4959805;28;20524;-81
2022/01/28 08:46:32;;;;;;;120.03;44.03;;;;;;;-9.75;61.35;99815.38;4975790;28;20509;-82
2022/01/28 08:48:58;;;;;;;144.48;47.95;;;;;;;-9.71;61.29;99796.44;4959562;28;20045;-82
2022/01/28 08:51:24;;;;;;;142.10;49.75;;;;;;;-9.55;61.35;99803.50;4959559;28;20422;-81
2022/01/28 08:53:50;;;;;;;141.00;50.35;;;;;;;-9.14;60.79;99791.69;4928150;28;20039;-81
2022/01/28 08:56:16;;;;;;;131.18;47.80;;;;;;;-8.71;60.22;99795.41;4976747;28;20051;-82
2022/01/28 08:58:42;;;;;;;132.98;45.88;;;;;;;-8.67;59.06;99791.09;4976638;28;20053;-82
2022/01/28 09:01:10;;;;;;;141.77;49.60;;;;;;;-8.59;58.96;99779.91;4943171;28;20046;-83
2022/01/28 09:03:36;;;;;;;115.20;41.63;;;;;;;-8.37;58.59;99785.19;4959381;28;20419;-80
2022/01/28 09:06:02;;;;;;;107.03;39.78;;;;;;;-8.44;57.82;99789.47;4958998;28;20150;-81
2022/01/28 09:08:28;;;;;;;132.88;48.38;;;;;;;-8.49;57.90;99785.13;4928163;28;20051;-82
2022/01/28 09:13:40;;;;;;;148.95;49.03;;;;;;;-8.29;57.09;99778.25;4945933;28;20051;-80
2022/01/28 09:16:06;;;;;;;137.50;48.67;;;;;;;-8.36;57.01;99776.50;4927538;28;20054;-82
2022/01/28 09:18:33;;;;;;;107.82;39.08;;;;;;;-8.16;56.32;99772.25;4943134;28;20499;-80
2022/01/28 09:20:59;;;;;;;101.72;34.35;;;;;;;-8.25;55.75;99767.00;4943078;28;20498;-82
2022/01/28 09:23:25;;;;;;;107.55;38.95;;;;;;;-8.47;55.52;99771.31;4943118;28;20062;-80
2022/01/28 09:25:51;;;;;;;106.82;35.80;;;;;;;-8.35;56.40;99760.97;4958908;28;20086;-82
2022/01/28 09:28:17;;;;;;;117.53;37.28;;;;;;;-8.11;55.74;99747.16;4943297;28;20043;-81
2022/01/28 09:30:43;;;;;;;81.32;27.40;;;;;;;-7.86;55.24;99736.81;4976157;28;20100;-83
2022/01/28 09:33:11;;;;;;;85.30;29.58;;;;;;;-7.71;55.28;99742.03;4959252;28;20624;-83
2022/01/28 09:35:37;;;;;;;85.07;31.40;;;;;;;-7.32;55.43;99752.38;4911783;28;20045;-80
2022/01/28 09:38:04;;;;;;;94.72;31.15;;;;;;;-7.14;54.52;99731.56;4974719;28;20051;-83
2022/01/28 09:40:30;;;;;;;91.95;28.63;;;;;;;-7.21;54.27;99727.25;4942872;28;20061;-82
2022/01/28 09:43:00;;;;;;;78.95;32.75;;;;;;;-7.51;54.47;99739.41;4942946;28;20072;-82
2022/01/28 09:45:26;;;;;;;88.53;30.17;;;;;;;-7.46;54.86;99731.59;4974767;28;20466;-82
2022/01/28 09:47:55;;;;;;;73.15;25.95;;;;;;;-7.52;55.08;99734.19;4975934;28;20050;-82
2022/01/28 09:50:21;;;;;;;80.97;30.17;;;;;;;-7.50;55.40;99730.75;4976070;28;20545;-80
2022/01/28 09:52:49;;;;;;;73.05;28.65;;;;;;;-7.40;55.53;99722.09;4974548;28;20051;-80
2022/01/28 09:55:15;;;;;;;74.05;25.83;;;;;;;-7.42;55.60;99722.94;4942582;28;20047;-80
2022/01/28 09:57:42;;;;;;;66.07;27.05;;;;;;;-7.73;55.91;99722.97;4958798;28;20051;-81
2022/01/28 10:00:10;;;;;;;69.20;29.20;;;;;;;-7.69;56.49;99719.50;4958638;28;20421;-81
2022/01/28 10:02:59;;;;;;;69.15;27.35;;;;;;;-7.77;56.20;99718.66;4974319;28;20045;-82
2022/01/28 10:05:27;;;;;;;61.75;25.00;;;;;;;-7.98;56.25;99711.72;4958399;28;20073;-81
2022/01/28 10:08:10;;;;;;;74.60;29.38;;;;;;;-7.97;56.40;99705.69;4974198;28;20081;-81
2022/01/28 10:10:54;;;;;;;81.35;28.73;;;;;;;-8.33;57.38;99716.88;4957505;28;20130;-81
2022/01/28 10:13:39;;;;;;;78.38;32.35;;;;;;;-8.40;58.02;99709.97;4942367;28;20074;-80
2022/01/28 10:16:05;;;;;;;103.20;35.03;;;;;;;-8.38;58.17;99692.72;4974357;28;20053;-83
2022/01/28 10:18:38;;;;;;;74.72;29.20;;;;;;;-8.48;58.46;99688.34;4974128;28;20069;-80
2022/01/28 10:21:21;;;;;;;105.30;42.30;;;;;;;-8.06;57.93;99688.38;4958434;28;20133;-79
2022/01/28 10:24:08;;;;;;;125.13;50.35;;;;;;;-7.89;57.78;99687.53;4904271;29;20051;-81
2022/01/28 10:26:37;;;;;;;117.97;47.60;;;;;;;-7.85;58.16;99686.66;4904771;29;20054;-80
2022/01/28 10:29:06;;;;;;;96.85;39.40;;;;;;;-7.93;57.87;99688.41;4903833;29;20508;-80
2022/01/28 10:31:43;;;;;;;124.03;50.05;;;;;;;-7.58;57.35;99686.63;4919654;29;20098;-80
2022/01/28 10:34:22;;;;;;;104.53;38.80;;;;;;;-7.49;57.04;99685.72;4888233;29;20048;-80
2022/01/28 10:36:49;;;;;;;110.70;44.78;;;;;;;-7.33;57.08;99686.59;4920688;29;20047;-80
2022/01/28 10:39:21;;;;;;;104.82;43.90;;;;;;;-7.12;56.82;99686.50;4905917;29;20566;-82
2022/01/28 10:41:57;;;;;;;117.28;45.80;;;;;;;-7.15;56.12;99686.50;4889162;29;20106;-81
2022/01/28 10:44:25;;;;;;;103.00;41.33;;;;;;;-7.25;56.47;99687.44;4935629;29;20051;-80
2022/01/28 10:46:58;;;;;;;110.30;44.35;;;;;;;-7.52;57.00;99679.69;4922038;29;20046;-81
2022/01/28 10:49:30;;;;;;;113.97;42.70;;;;;;;-7.27;56.58;99685.69;4875020;29;20040;-82
2022/01/28 10:52:09;;;;;;;113.15;43.63;;;;;;;-7.18;56.33;99689.13;4903783;29;20039;-82
2022/01/28 10:54:36;;;;;;;98.60;40.25;;;;;;;-7.27;56.50;99689.16;4903909;29;20504;-81
2022/01/28 10:57:03;;;;;;;129.98;43.17;;;;;;;-7.09;56.40;99683.91;4935346;29;20047;-81
2022/01/28 10:59:43;;;;;;;90.15;36.88;;;;;;;-7.09;55.75;99681.31;4919379;29;20495;-81
2022/01/28 11:02:09;;;;;;;109.05;41.95;;;;;;;-7.12;55.80;99676.13;4920194;29;20044;-81
2022/01/28 11:04:36;;;;;;;92.65;38.97;;;;;;;-7.17;55.91;99684.81;4918892;29;20098;-82
2022/01/28 11:07:02;;;;;;;88.35;34.58;;;;;;;-7.32;55.74;99672.72;4919535;29;20051;-81
2022/01/28 11:09:30;;;;;;;93.05;39.92;;;;;;;-7.24;56.03;99676.16;4905762;29;20077;-83
2022/01/28 11:11:56;;;;;;;89.70;36.40;;;;;;;-7.22;56.15;99669.25;4952892;29;20047;-82
2022/01/28 11:14:22;;;;;;;90.88;38.40;;;;;;;-7.39;56.75;99666.69;4934836;29;20076;-84
2022/01/28 11:16:48;;;;;;;85.00;31.65;;;;;;;-7.31;56.69;99658.88;4936872;29;20051;-81
2022/01/28 11:19:17;;;;;;;90.10;33.60;;;;;;;-7.28;56.49;99663.19;4920521;29;20392;-82
2022/01/28 11:21:46;;;;;;;87.63;33.53;;;;;;;-7.60;56.45;99662.41;4926408;28;20062;-80
2022/01/28 11:24:51;;;;;;;106.35;35.20;;;;;;;-7.53;56.79;99660.66;4957317;28;20607;-81
2022/01/28 11:27:37;;;;;;;88.05;34.90;;;;;;;-7.73;56.97;99660.69;4954314;28;20046;-81
2022/01/28 11:30:24;;;;;;;97.35;37.70;;;;;;;-7.91;57.95;99655.50;4941035;28;20499;-80
2022/01/28 11:33:05;;;;;;;94.05;36.92;;;;;;;-8.16;58.18;99642.56;4957258;28;20055;-82
2022/01/28 11:35:33;;;;;;;83.30;34.35;;;;;;;-8.12;58.90;99662.44;4941724;28;20481;-81
2022/01/28 11:38:04;;;;;;;101.07;39.13;;;;;;;-8.11;59.14;99647.75;4973527;28;20101;-81
2022/01/28 11:40:44;;;;;;;96.07;39.03;;;;;;;-8.19;58.87;99646.88;4926753;28;20045;-83
2022/01/28 11:43:17;;;;;;;88.25;34.70;;;;;;;-8.29;58.86;99640.81;4958692;28;20135;-81
2022/01/28 11:45:43;;;;;;;112.88;39.85;;;;;;;-8.35;58.86;99643.41;4943254;28;20047;-80
2022/01/28 11:48:09;;;;;;;94.75;37.92;;;;;;;-8.61;59.09;99641.69;4926632;28;20085;-81
2022/01/28 11:50:36;;;;;;;89.75;33.70;;;;;;;-8.81;59.45;99645.94;4958423;28;20570;-81
2022/01/28 11:53:02;;;;;;;77.50;31.75;;;;;;;-9.04;59.37;99651.06;4942547;28;20042;-82
2022/01/28 11:55:29;;;;;;;89.95;34.72;;;;;;;-9.26;59.52;99638.88;4926982;28;20093;-80
2022/01/28 11:58:07;;;;;;;69.13;27.77;;;;;;;-9.33;59.33;99648.34;4941269;28;20102;-83
2022/01/28 12:00:39;;;;;;;102.05;36.42;;;;;;;-9.40;59.66;99646.56;4940785;28;20062;-81
2022/01/28 12:03:25;;;;;;;85.65;32.25;;;;;;;-9.59;58.93;99641.31;4941242;28;20054;-81
2022/01/28 12:05:58;;;;;;;91.15;33.80;;;;;;;-9.86;59.45;99636.81;4973306;28;20039;-81
2022/01/28 12:08:28;;;;;;;74.82;31.20;;;;;;;-9.98;59.80;99646.22;4957045;28;20039;-81
2022/01/28 12:10:54;;;;;;;102.95;39.58;;;;;;;-10.06;59.94;99633.25;4956760;28;20105;-78
2022/01/28 12:13:31;;;;;;;106.85;39.83;;;;;;;-10.10;60.47;99640.13;4956311;28;20406;-82
2022/01/28 12:18:25;;;;;;;64.82;26.08;;;;;;;-9.99;60.59;99634.16;4924962;28;20102;-81
2022/01/28 12:20:53;;;;;;;82.75;34.20;;;;;;;-9.98;60.76;99633.31;4972471;28;20045;-81
2022/01/28 12:23:21;;;;;;;92.50;33.22;;;;;;;-10.02;60.80;99635.84;4956944;28;20159;-79
2022/01/28 12:25:48;;;;;;;61.22;26.38;;;;;;;-10.07;61.52;99634.97;4972603;28;20137;-80
2022/01/28 12:28:21;;;;;;;76.05;27.85;;;;;;;-10.08;61.85;99635.84;4940978;28;20043;-83
2022/01/28 12:31:00;;;;;;;56.38;23.63;;;;;;;-10.14;61.85;99635.78;4956700;28;20039;-81
2022/01/28 12:33:48;;;;;;;45.67;16.60;;;;;;;-10.23;62.18;99630.50;4972432;28;20042;-81
2022/01/28 12:36:18;;;;;;;49.42;18.83;;;;;;;-10.35;62.85;99625.28;4945654;28;20051;-81
2022/01/28 12:38:58;;;;;;;74.65;29.40;;;;;;;-10.33;63.20;99628.75;4944247;28;20115;-82
2022/01/28 12:41:25;;;;;;;62.65;20.98;;;;;;;-10.31;63.30;99620.16;4962009;28;20053;-81
2022/01/28 12:43:52;;;;;;;62.92;25.35;;;;;;;-10.28;63.10;99627.06;4944351;28;20085;-81
2022/01/28 12:46:17;;;;;;;54.42;21.83;;;;;;;-10.24;63.68;99609.84;4977047;28;20054;-83